sensor_id;sensor_type;location;lat;lon;timestamp;pressure;altitude;pressure_sealevel;temperature;humidity
64908;BME280;64365;-1.756;110.040;2022-11-21T00:02:04;100563.72;;;5.63;87.79
64908;BME280;64365;-1.756;110.040;2022-11-21T00:04:31;100564.13;;;5.65;87.58
64908;BME280;64365;-1.756;110.040;2022-11-21T00:06:57;100571.63;;;5.63;87.79
64908;BME280;64365;-1.756;110.040;2022-11-21T00:09:24;100578.09;;;5.66;88.79
64908;BME280;64365;-1.756;110.040;2022-11-21T00:11:50;100578.41;;;5.77;91.24
64908;BME280;64365;-1.756;110.040;2022-11-21T00:14:17;100587.25;;;5.84;90.05
64908;BME280;64365;-1.756;110.040;2022-11-21T00:16:45;100578.59;;;5.84;90.36
64908;BME280;64365;-1.756;110.040;2022-11-21T00:19:12;100581.06;;;5.93;91.36
64908;BME280;64365;-1.756;110.040;2022-11-21T00:21:39;100572.72;;;5.90;89.25
64908;BME280;64365;-1.756;110.040;2022-11-21T00:24:08;100563.50;;;5.84;85.44
64908;BME280;64365;-1.756;110.040;2022-11-21T00:26:36;100580.78;;;5.82;88.64
64908;BME280;64365;-1.756;110.040;2022-11-21T00:29:02;100586.25;;;5.89;92.26
64908;BME280;64365;-1.756;110.040;2022-11-21T00:31:29;100593.84;;;5.90;89.23
64908;BME280;64365;-1.756;110.040;2022-11-21T00:33:57;100577.72;;;5.80;87.19
64908;BME280;64365;-1.756;110.040;2022-11-21T00:36:23;100598.06;;;5.79;87.95
64908;BME280;64365;-1.756;110.040;2022-11-21T00:38:50;100587.41;;;5.76;85.36
64908;BME280;64365;-1.756;110.040;2022-11-21T00:41:16;100586.78;;;5.66;85.48
64908;BME280;64365;-1.756;110.040;2022-11-21T00:43:43;100590.41;;;5.62;86.80
64908;BME280;64365;-1.756;110.040;2022-11-21T00:46:09;100589.97;;;5.60;88.35
64908;BME280;64365;-1.756;110.040;2022-11-21T00:48:36;100596.91;;;5.64;88.54
64908;BME280;64365;-1.756;110.040;2022-11-21T00:51:03;100599.53;;;5.64;85.57
64908;BME280;64365;-1.756;110.040;2022-11-21T00:53:30;100596.13;;;5.64;84.64
64908;BME280;64365;-1.756;110.040;2022-11-21T00:55:56;100594.81;;;5.57;83.55
64908;BME280;64365;-1.756;110.040;2022-11-21T00:58:23;100591.63;;;5.52;82.83
64908;BME280;64365;-1.756;110.040;2022-11-21T01:00:50;100585.41;;;5.44;83.93
64908;BME280;64365;-1.756;110.040;2022-11-21T01:03:16;100574.66;;;5.37;83.06
64908;BME280;64365;-1.756;110.040;2022-11-21T01:05:43;100573.22;;;5.39;83.52
64908;BME280;64365;-1.756;110.040;2022-11-21T01:08:11;100579.16;;;5.36;84.77
64908;BME280;64365;-1.756;110.040;2022-11-21T01:10:38;100579.84;;;5.33;84.75
64908;BME280;64365;-1.756;110.040;2022-11-21T01:13:04;100595.97;;;5.32;83.79
64908;BME280;64365;-1.756;110.040;2022-11-21T01:15:32;100587.75;;;5.33;83.47
64908;BME280;64365;-1.756;110.040;2022-11-21T01:17:59;100570.72;;;5.31;84.24
64908;BME280;64365;-1.756;110.040;2022-11-21T01:20:26;100582.34;;;5.30;84.71
64908;BME280;64365;-1.756;110.040;2022-11-21T01:22:52;100582.47;;;5.33;89.70
64908;BME280;64365;-1.756;110.040;2022-11-21T01:25:20;100584.75;;;5.47;93.96
64908;BME280;64365;-1.756;110.040;2022-11-21T01:27:46;100582.41;;;5.58;93.62
64908;BME280;64365;-1.756;110.040;2022-11-21T01:30:13;100566.25;;;5.60;89.38
64908;BME280;64365;-1.756;110.040;2022-11-21T01:32:40;100549.78;;;5.50;86.75
64908;BME280;64365;-1.756;110.040;2022-11-21T01:35:07;100555.53;;;5.52;86.11
64908;BME280;64365;-1.756;110.040;2022-11-21T01:37:33;100556.09;;;5.46;85.27
64908;BME280;64365;-1.756;110.040;2022-11-21T01:40:00;100552.25;;;5.43;84.72
64908;BME280;64365;-1.756;110.040;2022-11-21T01:42:28;100548.84;;;5.43;86.44
64908;BME280;64365;-1.756;110.040;2022-11-21T01:44:54;100549.16;;;5.41;84.14
64908;BME280;64365;-1.756;110.040;2022-11-21T01:47:21;100541.75;;;5.31;83.71
64908;BME280;64365;-1.756;110.040;2022-11-21T01:49:48;100547.91;;;5.22;85.94
64908;BME280;64365;-1.756;110.040;2022-11-21T01:52:19;100551.41;;;5.27;88.45
64908;BME280;64365;-1.756;110.040;2022-11-21T01:54:51;100550.06;;;5.33;88.95
64908;BME280;64365;-1.756;110.040;2022-11-21T01:57:24;100557.41;;;5.39;87.37
64908;BME280;64365;-1.756;110.040;2022-11-21T01:59:58;100564.88;;;5.37;88.45
64908;BME280;64365;-1.756;110.040;2022-11-21T02:02:28;100581.22;;;5.43;90.25
64908;BME280;64365;-1.756;110.040;2022-11-21T02:04:56;100586.69;;;5.50;92.77
64908;BME280;64365;-1.756;110.040;2022-11-21T02:07:25;100577.81;;;5.55;90.35
64908;BME280;64365;-1.756;110.040;2022-11-21T02:09:55;100575.75;;;5.48;87.31
64908;BME280;64365;-1.756;110.040;2022-11-21T02:12:25;100585.41;;;5.44;85.46
64908;BME280;64365;-1.756;110.040;2022-11-21T02:14:56;100582.22;;;5.38;84.64
64908;BME280;64365;-1.756;110.040;2022-11-21T02:17:25;100577.97;;;5.34;84.66
64908;BME280;64365;-1.756;110.040;2022-11-21T02:19:54;100576.66;;;5.28;83.87
64908;BME280;64365;-1.756;110.040;2022-11-21T02:22:29;100581.94;;;5.28;88.51
64908;BME280;64365;-1.756;110.040;2022-11-21T02:25:04;100578.41;;;5.36;89.67
64908;BME280;64365;-1.756;110.040;2022-11-21T02:27:31;100573.22;;;5.39;87.82
64908;BME280;64365;-1.756;110.040;2022-11-21T02:29:58;100562.16;;;5.34;85.95
64908;BME280;64365;-1.756;110.040;2022-11-21T02:32:32;100571.16;;;5.33;85.74
64908;BME280;64365;-1.756;110.040;2022-11-21T02:34:59;100565.47;;;5.31;85.86
64908;BME280;64365;-1.756;110.040;2022-11-21T02:37:25;100567.00;;;5.32;84.70
64908;BME280;64365;-1.756;110.040;2022-11-21T02:39:52;100559.31;;;5.27;85.35
64908;BME280;64365;-1.756;110.040;2022-11-21T02:42:25;100566.69;;;5.21;83.68
64908;BME280;64365;-1.756;110.040;2022-11-21T02:44:56;100552.19;;;5.15;84.72
64908;BME280;64365;-1.756;110.040;2022-11-21T02:47:27;100556.03;;;5.17;84.40
64908;BME280;64365;-1.756;110.040;2022-11-21T02:49:57;100543.84;;;5.13;84.18
64908;BME280;64365;-1.756;110.040;2022-11-21T02:52:27;100549.44;;;5.11;84.29
64908;BME280;64365;-1.756;110.040;2022-11-21T02:54:53;100542.00;;;5.13;86.11
64908;BME280;64365;-1.756;110.040;2022-11-21T02:57:21;100539.34;;;5.13;84.56
64908;BME280;64365;-1.756;110.040;2022-11-21T02:59:47;100543.09;;;5.12;84.47
64908;BME280;64365;-1.756;110.040;2022-11-21T03:02:14;100532.78;;;5.07;85.61
64908;BME280;64365;-1.756;110.040;2022-11-21T03:04:40;100540.88;;;5.27;89.39
64908;BME280;64365;-1.756;110.040;2022-11-21T03:07:07;100522.84;;;5.29;88.20
64908;BME280;64365;-1.756;110.040;2022-11-21T03:09:33;100525.94;;;5.31;87.60
64908;BME280;64365;-1.756;110.040;2022-11-21T03:12:04;100528.22;;;5.32;87.94
64908;BME280;64365;-1.756;110.040;2022-11-21T03:14:32;100528.69;;;5.22;84.94
64908;BME280;64365;-1.756;110.040;2022-11-21T03:16:59;100527.28;;;5.12;85.29
64908;BME280;64365;-1.756;110.040;2022-11-21T03:19:25;100517.63;;;5.04;85.53
64908;BME280;64365;-1.756;110.040;2022-11-21T03:21:52;100518.31;;;5.01;85.83
64908;BME280;64365;-1.756;110.040;2022-11-21T03:24:18;100513.47;;;5.03;87.54
64908;BME280;64365;-1.756;110.040;2022-11-21T03:26:45;100516.53;;;5.05;86.67
64908;BME280;64365;-1.756;110.040;2022-11-21T03:29:11;100508.97;;;5.03;87.14
64908;BME280;64365;-1.756;110.040;2022-11-21T03:31:39;100511.06;;;4.98;86.18
64908;BME280;64365;-1.756;110.040;2022-11-21T03:34:06;100513.25;;;4.96;87.17
64908;BME280;64365;-1.756;110.040;2022-11-21T03:36:33;100510.19;;;4.94;86.21
64908;BME280;64365;-1.756;110.040;2022-11-21T03:38:59;100508.66;;;4.93;86.13
64908;BME280;64365;-1.756;110.040;2022-11-21T03:41:26;100511.06;;;4.85;86.58
64908;BME280;64365;-1.756;110.040;2022-11-21T03:43:55;100518.75;;;4.91;89.82
64908;BME280;64365;-1.756;110.040;2022-11-21T03:46:22;100506.91;;;4.97;89.18
64908;BME280;64365;-1.756;110.040;2022-11-21T03:48:50;100502.72;;;4.96;87.57
64908;BME280;64365;-1.756;110.040;2022-11-21T03:51:17;100492.84;;;4.80;86.63
64908;BME280;64365;-1.756;110.040;2022-11-21T03:53:43;100506.59;;;4.74;87.67
64908;BME280;64365;-1.756;110.040;2022-11-21T03:56:10;100494.22;;;4.62;87.58
64908;BME280;64365;-1.756;110.040;2022-11-21T03:58:36;100496.19;;;4.52;88.30
64908;BME280;64365;-1.756;110.040;2022-11-21T04:01:03;100499.22;;;4.54;86.50
64908;BME280;64365;-1.756;110.040;2022-11-21T04:03:30;100491.78;;;4.57;88.20
64908;BME280;64365;-1.756;110.040;2022-11-21T04:05:58;100483.44;;;4.54;87.49
64908;BME280;64365;-1.756;110.040;2022-11-21T04:08:25;100484.44;;;4.50;87.41
64908;BME280;64365;-1.756;110.040;2022-11-21T04:10:53;100482.69;;;4.54;89.02
64908;BME280;64365;-1.756;110.040;2022-11-21T04:13:20;100488.06;;;4.70;90.22
64908;BME280;64365;-1.756;110.040;2022-11-21T04:15:46;100488.03;;;4.82;92.93
64908;BME280;64365;-1.756;110.040;2022-11-21T04:18:13;100496.59;;;4.92;90.42
64908;BME280;64365;-1.756;110.040;2022-11-21T04:20:40;100488.25;;;4.89;90.22
64908;BME280;64365;-1.756;110.040;2022-11-21T04:23:08;100499.66;;;4.94;89.88
64908;BME280;64365;-1.756;110.040;2022-11-21T04:25:35;100499.88;;;5.01;89.92
64908;BME280;64365;-1.756;110.040;2022-11-21T04:28:03;100504.28;;;4.97;88.89
64908;BME280;64365;-1.756;110.040;2022-11-21T04:30:31;100489.09;;;4.94;89.41
64908;BME280;64365;-1.756;110.040;2022-11-21T04:32:58;100496.78;;;4.99;88.54
64908;BME280;64365;-1.756;110.040;2022-11-21T04:35:24;100499.34;;;4.95;87.61
64908;BME280;64365;-1.756;110.040;2022-11-21T04:37:52;100487.81;;;4.87;86.87
64908;BME280;64365;-1.756;110.040;2022-11-21T04:40:20;100493.09;;;4.87;86.16
64908;BME280;64365;-1.756;110.040;2022-11-21T04:42:47;100490.34;;;4.84;87.44
64908;BME280;64365;-1.756;110.040;2022-11-21T04:45:14;100490.44;;;4.87;89.00
64908;BME280;64365;-1.756;110.040;2022-11-21T04:47:43;100465.09;;;4.83;88.69
64908;BME280;64365;-1.756;110.040;2022-11-21T04:50:11;100478.00;;;5.00;88.27
64908;BME280;64365;-1.756;110.040;2022-11-21T04:52:38;100475.63;;;4.95;85.88
64908;BME280;64365;-1.756;110.040;2022-11-21T04:55:05;100475.06;;;4.89;86.69
64908;BME280;64365;-1.756;110.040;2022-11-21T04:57:33;100464.00;;;4.84;86.86
64908;BME280;64365;-1.756;110.040;2022-11-21T05:00:00;100467.97;;;4.78;86.56
64908;BME280;64365;-1.756;110.040;2022-11-21T05:02:27;100455.13;;;4.76;87.32
64908;BME280;64365;-1.756;110.040;2022-11-21T05:04:53;100466.53;;;4.80;87.80
64908;BME280;64365;-1.756;110.040;2022-11-21T05:07:20;100461.38;;;4.84;87.98
64908;BME280;64365;-1.756;110.040;2022-11-21T05:09:46;100447.53;;;4.87;87.86
64908;BME280;64365;-1.756;110.040;2022-11-21T05:12:13;100454.69;;;4.86;86.42
64908;BME280;64365;-1.756;110.040;2022-11-21T05:14:55;100456.34;;;4.79;86.10
64908;BME280;64365;-1.756;110.040;2022-11-21T05:17:21;100461.25;;;4.80;86.56
64908;BME280;64365;-1.756;110.040;2022-11-21T05:19:48;100458.75;;;4.71;85.69
64908;BME280;64365;-1.756;110.040;2022-11-21T05:22:14;100441.97;;;4.64;87.10
64908;BME280;64365;-1.756;110.040;2022-11-21T05:24:41;100441.44;;;4.58;86.20
64908;BME280;64365;-1.756;110.040;2022-11-21T05:27:07;100440.69;;;4.58;88.89
64908;BME280;64365;-1.756;110.040;2022-11-21T05:29:34;100443.66;;;4.68;89.52
64908;BME280;64365;-1.756;110.040;2022-11-21T05:32:02;100425.75;;;4.74;90.14
64908;BME280;64365;-1.756;110.040;2022-11-21T05:34:28;100437.34;;;4.85;87.31
64908;BME280;64365;-1.756;110.040;2022-11-21T05:36:55;100431.25;;;4.69;87.42
64908;BME280;64365;-1.756;110.040;2022-11-21T05:39:23;100438.38;;;4.68;88.40
64908;BME280;64365;-1.756;110.040;2022-11-21T05:41:50;100431.47;;;4.64;87.71
64908;BME280;64365;-1.756;110.040;2022-11-21T05:44:17;100435.22;;;4.63;86.87
64908;BME280;64365;-1.756;110.040;2022-11-21T05:46:42;100419.09;;;4.64;87.38
64908;BME280;64365;-1.756;110.040;2022-11-21T05:49:11;100417.22;;;4.65;87.08
64908;BME280;64365;-1.756;110.040;2022-11-21T05:51:38;100412.38;;;4.67;86.83
64908;BME280;64365;-1.756;110.040;2022-11-21T05:54:04;100421.72;;;4.64;86.53
64908;BME280;64365;-1.756;110.040;2022-11-21T05:56:31;100424.78;;;4.54;87.16
64908;BME280;64365;-1.756;110.040;2022-11-21T05:58:58;100413.38;;;4.50;87.00
64908;BME280;64365;-1.756;110.040;2022-11-21T06:01:24;100428.63;;;4.57;87.64
64908;BME280;64365;-1.756;110.040;2022-11-21T06:04:05;100420.19;;;4.63;90.46
64908;BME280;64365;-1.756;110.040;2022-11-21T06:06:33;100408.97;;;4.66;88.15
64908;BME280;64365;-1.756;110.040;2022-11-21T06:09:00;100415.66;;;4.64;87.48
64908;BME280;64365;-1.756;110.040;2022-11-21T06:11:27;100419.31;;;4.59;88.73
64908;BME280;64365;-1.756;110.040;2022-11-21T06:13:53;100415.88;;;4.59;88.24
64908;BME280;64365;-1.756;110.040;2022-11-21T06:16:20;100413.50;;;4.53;87.81
64908;BME280;64365;-1.756;110.040;2022-11-21T06:18:48;100400.56;;;4.48;87.95
64908;BME280;64365;-1.756;110.040;2022-11-21T06:21:18;100405.38;;;4.46;87.31
64908;BME280;64365;-1.756;110.040;2022-11-21T06:23:48;100402.41;;;4.48;88.16
64908;BME280;64365;-1.756;110.040;2022-11-21T06:26:16;100399.03;;;4.47;87.95
64908;BME280;64365;-1.756;110.040;2022-11-21T06:28:44;100404.50;;;4.54;89.52
64908;BME280;64365;-1.756;110.040;2022-11-21T06:31:12;100406.34;;;4.66;91.76
64908;BME280;64365;-1.756;110.040;2022-11-21T06:33:40;100407.44;;;4.78;94.02
64908;BME280;64365;-1.756;110.040;2022-11-21T06:36:09;100407.81;;;4.92;92.35
64908;BME280;64365;-1.756;110.040;2022-11-21T06:38:36;100403.97;;;4.89;89.96
64908;BME280;64365;-1.756;110.040;2022-11-21T06:41:04;100414.50;;;4.89;90.13
64908;BME280;64365;-1.756;110.040;2022-11-21T06:43:31;100405.06;;;5.01;90.98
64908;BME280;64365;-1.756;110.040;2022-11-21T06:45:58;100403.63;;;5.03;90.10
64908;BME280;64365;-1.756;110.040;2022-11-21T06:48:25;100394.84;;;4.99;88.30
64908;BME280;64365;-1.756;110.040;2022-11-21T06:50:52;100388.72;;;4.95;89.08
64908;BME280;64365;-1.756;110.040;2022-11-21T06:53:18;100384.56;;;4.94;88.61
64908;BME280;64365;-1.756;110.040;2022-11-21T06:55:45;100383.59;;;4.86;87.82
64908;BME280;64365;-1.756;110.040;2022-11-21T06:58:13;100372.09;;;4.79;88.96
64908;BME280;64365;-1.756;110.040;2022-11-21T07:00:42;100380.19;;;4.86;89.19
64908;BME280;64365;-1.756;110.040;2022-11-21T07:03:10;100373.72;;;4.83;89.06
64908;BME280;64365;-1.756;110.040;2022-11-21T07:05:36;100369.22;;;4.84;89.94
64908;BME280;64365;-1.756;110.040;2022-11-21T07:08:03;100367.38;;;4.84;89.47
64908;BME280;64365;-1.756;110.040;2022-11-21T07:10:30;100370.19;;;4.92;89.87
64908;BME280;64365;-1.756;110.040;2022-11-21T07:12:57;100367.06;;;5.02;92.10
64908;BME280;64365;-1.756;110.040;2022-11-21T07:15:42;100367.84;;;5.02;93.41
64908;BME280;64365;-1.756;110.040;2022-11-21T07:18:09;100363.72;;;5.17;90.63
64908;BME280;64365;-1.756;110.040;2022-11-21T07:20:36;100365.66;;;5.20;89.63
64908;BME280;64365;-1.756;110.040;2022-11-21T07:23:02;100358.34;;;5.14;88.80
64908;BME280;64365;-1.756;110.040;2022-11-21T07:25:29;100358.50;;;5.05;88.91
64908;BME280;64365;-1.756;110.040;2022-11-21T07:27:57;100348.38;;;5.07;90.05
64908;BME280;64365;-1.756;110.040;2022-11-21T07:30:23;100345.09;;;5.10;89.25
64908;BME280;64365;-1.756;110.040;2022-11-21T07:32:55;100344.25;;;5.06;90.54
64908;BME280;64365;-1.756;110.040;2022-11-21T07:35:22;100353.19;;;5.17;89.32
64908;BME280;64365;-1.756;110.040;2022-11-21T07:37:49;100347.56;;;5.19;89.19
64908;BME280;64365;-1.756;110.040;2022-11-21T07:40:16;100344.94;;;5.19;88.83
64908;BME280;64365;-1.756;110.040;2022-11-21T07:42:43;100343.41;;;5.18;88.21
64908;BME280;64365;-1.756;110.040;2022-11-21T07:45:11;100342.19;;;5.15;87.94
64908;BME280;64365;-1.756;110.040;2022-11-21T07:47:37;100347.28;;;5.08;88.11
64908;BME280;64365;-1.756;110.040;2022-11-21T07:50:08;100338.63;;;5.08;88.02
64908;BME280;64365;-1.756;110.040;2022-11-21T07:52:35;100336.06;;;5.11;88.66
64908;BME280;64365;-1.756;110.040;2022-11-21T07:55:03;100340.00;;;5.17;87.91
64908;BME280;64365;-1.756;110.040;2022-11-21T07:57:30;100340.69;;;5.14;87.95
64908;BME280;64365;-1.756;110.040;2022-11-21T07:59:57;100338.28;;;5.09;87.75
64908;BME280;64365;-1.756;110.040;2022-11-21T08:02:25;100345.75;;;5.07;88.35
64908;BME280;64365;-1.756;110.040;2022-11-21T08:04:52;100339.91;;;5.14;89.01
64908;BME280;64365;-1.756;110.040;2022-11-21T08:07:21;100331.53;;;5.24;89.15
64908;BME280;64365;-1.756;110.040;2022-11-21T08:09:48;100336.44;;;5.26;88.20
64908;BME280;64365;-1.756;110.040;2022-11-21T08:12:15;100331.19;;;5.26;88.27
64908;BME280;64365;-1.756;110.040;2022-11-21T08:14:41;100327.84;;;5.29;87.83
64908;BME280;64365;-1.756;110.040;2022-11-21T08:17:08;100331.34;;;5.33;87.73
64908;BME280;64365;-1.756;110.040;2022-11-21T08:19:34;100324.38;;;5.25;87.26
64908;BME280;64365;-1.756;110.040;2022-11-21T08:22:01;100322.25;;;5.14;88.17
64908;BME280;64365;-1.756;110.040;2022-11-21T08:24:29;100318.59;;;5.19;88.97
64908;BME280;64365;-1.756;110.040;2022-11-21T08:26:55;100315.22;;;5.18;88.54
64908;BME280;64365;-1.756;110.040;2022-11-21T08:29:23;100310.78;;;5.22;88.61
64908;BME280;64365;-1.756;110.040;2022-11-21T08:31:50;100313.09;;;5.24;89.46
64908;BME280;64365;-1.756;110.040;2022-11-21T08:34:17;100309.75;;;5.27;88.06
64908;BME280;64365;-1.756;110.040;2022-11-21T08:36:43;100308.75;;;5.16;87.77
64908;BME280;64365;-1.756;110.040;2022-11-21T08:39:10;100307.03;;;5.08;89.14
64908;BME280;64365;-1.756;110.040;2022-11-21T08:41:38;100321.56;;;5.17;89.99
64908;BME280;64365;-1.756;110.040;2022-11-21T08:44:22;100304.50;;;5.27;89.68
64908;BME280;64365;-1.756;110.040;2022-11-21T08:46:49;100296.69;;;5.31;90.05
64908;BME280;64365;-1.756;110.040;2022-11-21T08:49:15;100282.97;;;5.41;90.21
64908;BME280;64365;-1.756;110.040;2022-11-21T08:51:42;100283.16;;;5.48;90.12
64908;BME280;64365;-1.756;110.040;2022-11-21T08:54:08;100279.59;;;5.56;90.04
64908;BME280;64365;-1.756;110.040;2022-11-21T08:56:35;100267.50;;;5.55;89.77
64908;BME280;64365;-1.756;110.040;2022-11-21T08:59:03;100267.41;;;5.52;90.69
64908;BME280;64365;-1.756;110.040;2022-11-21T09:01:29;100270.00;;;5.48;90.13
64908;BME280;64365;-1.756;110.040;2022-11-21T09:03:56;100275.16;;;5.45;90.33
64908;BME280;64365;-1.756;110.040;2022-11-21T09:06:22;100271.59;;;5.53;90.67
64908;BME280;64365;-1.756;110.040;2022-11-21T09:08:49;100265.47;;;5.49;91.16
64908;BME280;64365;-1.756;110.040;2022-11-21T09:11:15;100272.94;;;5.63;91.76
64908;BME280;64365;-1.756;110.040;2022-11-21T09:13:42;100256.94;;;5.71;91.53
64908;BME280;64365;-1.756;110.040;2022-11-21T09:16:11;100263.16;;;5.79;92.34
64908;BME280;64365;-1.756;110.040;2022-11-21T09:18:55;100255.31;;;5.83;91.53
64908;BME280;64365;-1.756;110.040;2022-11-21T09:21:21;100245.34;;;5.92;91.09
64908;BME280;64365;-1.756;110.040;2022-11-21T09:23:48;100245.84;;;5.98;90.59
64908;BME280;64365;-1.756;110.040;2022-11-21T09:26:14;100235.63;;;5.96;90.79
64908;BME280;64365;-1.756;110.040;2022-11-21T09:28:41;100235.47;;;6.05;91.51
64908;BME280;64365;-1.756;110.040;2022-11-21T09:31:07;100233.44;;;6.18;91.57
64908;BME280;64365;-1.756;110.040;2022-11-21T09:33:35;100225.59;;;6.21;91.59
64908;BME280;64365;-1.756;110.040;2022-11-21T09:36:02;100225.38;;;6.30;91.96
64908;BME280;64365;-1.756;110.040;2022-11-21T09:38:29;100217.94;;;6.36;91.89
64908;BME280;64365;-1.756;110.040;2022-11-21T09:41:01;100206.44;;;6.44;90.59
64908;BME280;64365;-1.756;110.040;2022-11-21T09:44:00;100200.44;;;6.47;90.29
64908;BME280;64365;-1.756;110.040;2022-11-21T09:46:33;100199.34;;;6.48;89.88
64908;BME280;64365;-1.756;110.040;2022-11-21T09:49:06;100200.09;;;6.49;91.05
64908;BME280;64365;-1.756;110.040;2022-11-21T09:51:36;100196.25;;;6.66;91.94
64908;BME280;64365;-1.756;110.040;2022-11-21T09:54:12;100200.59;;;6.78;91.63
64908;BME280;64365;-1.756;110.040;2022-11-21T09:56:42;100195.84;;;6.87;90.91
64908;BME280;64365;-1.756;110.040;2022-11-21T09:59:20;100185.25;;;6.83;90.79
64908;BME280;64365;-1.756;110.040;2022-11-21T10:01:50;100190.53;;;6.83;90.57
64908;BME280;64365;-1.756;110.040;2022-11-21T10:04:17;100191.38;;;6.91;91.66
64908;BME280;64365;-1.756;110.040;2022-11-21T10:06:51;100194.09;;;6.95;91.61
64908;BME280;64365;-1.756;110.040;2022-11-21T10:09:28;100196.09;;;7.01;91.70
64908;BME280;64365;-1.756;110.040;2022-11-21T10:12:02;100194.63;;;7.04;91.36
64908;BME280;64365;-1.756;110.040;2022-11-21T10:14:54;100194.72;;;7.11;90.25
64908;BME280;64365;-1.756;110.040;2022-11-21T10:17:32;100188.69;;;7.11;89.62
64908;BME280;64365;-1.756;110.040;2022-11-21T10:20:05;100195.72;;;7.03;90.23
64908;BME280;64365;-1.756;110.040;2022-11-21T10:22:58;100183.34;;;7.07;90.87
64908;BME280;64365;-1.756;110.040;2022-11-21T10:25:29;100187.88;;;7.06;90.43
64908;BME280;64365;-1.756;110.040;2022-11-21T10:28:01;100172.03;;;7.10;90.80
64908;BME280;64365;-1.756;110.040;2022-11-21T10:30:29;100163.06;;;7.15;90.99
64908;BME280;64365;-1.756;110.040;2022-11-21T10:32:58;100162.34;;;7.18;90.50
64908;BME280;64365;-1.756;110.040;2022-11-21T10:35:35;100168.44;;;7.22;91.08
64908;BME280;64365;-1.756;110.040;2022-11-21T10:38:17;100162.44;;;7.25;90.73
64908;BME280;64365;-1.756;110.040;2022-11-21T10:40:49;100156.84;;;7.27;90.34
64908;BME280;64365;-1.756;110.040;2022-11-21T10:43:24;100145.47;;;7.26;90.24
64908;BME280;64365;-1.756;110.040;2022-11-21T10:46:11;100145.94;;;7.32;89.91
64908;BME280;64365;-1.756;110.040;2022-11-21T10:48:37;100141.66;;;7.23;89.60
64908;BME280;64365;-1.756;110.040;2022-11-21T10:51:13;100138.22;;;7.19;89.64
64908;BME280;64365;-1.756;110.040;2022-11-21T10:53:44;100139.81;;;7.24;90.94
64908;BME280;64365;-1.756;110.040;2022-11-21T10:56:32;100132.69;;;7.28;91.74
64908;BME280;64365;-1.756;110.040;2022-11-21T10:59:11;100136.53;;;7.34;90.94
64908;BME280;64365;-1.756;110.040;2022-11-21T11:01:38;100121.84;;;7.37;91.48
64908;BME280;64365;-1.756;110.040;2022-11-21T11:04:10;100127.53;;;7.39;91.08
64908;BME280;64365;-1.756;110.040;2022-11-21T11:06:44;100131.75;;;7.44;91.06
64908;BME280;64365;-1.756;110.040;2022-11-21T11:09:21;100122.78;;;7.52;91.05
64908;BME280;64365;-1.756;110.040;2022-11-21T11:11:48;100117.59;;;7.59;90.81
64908;BME280;64365;-1.756;110.040;2022-11-21T11:14:27;100111.16;;;7.56;90.75
64908;BME280;64365;-1.756;110.040;2022-11-21T11:16:55;100113.81;;;7.60;90.80
64908;BME280;64365;-1.756;110.040;2022-11-21T11:19:25;100107.16;;;7.73;90.09
64908;BME280;64365;-1.756;110.040;2022-11-21T11:21:53;100107.84;;;7.67;89.92
64908;BME280;64365;-1.756;110.040;2022-11-21T11:24:22;100097.28;;;7.67;89.69
64908;BME280;64365;-1.756;110.040;2022-11-21T11:26:56;100080.66;;;7.66;90.93
64908;BME280;64365;-1.756;110.040;2022-11-21T11:29:24;100072.84;;;7.77;91.04
64908;BME280;64365;-1.756;110.040;2022-11-21T11:31:54;100076.34;;;7.88;90.19
64908;BME280;64365;-1.756;110.040;2022-11-21T11:34:22;100074.91;;;7.95;90.57
64908;BME280;64365;-1.756;110.040;2022-11-21T11:36:55;100078.81;;;8.08;90.62
64908;BME280;64365;-1.756;110.040;2022-11-21T11:39:34;100074.28;;;8.08;90.13
64908;BME280;64365;-1.756;110.040;2022-11-21T11:42:27;100074.69;;;8.11;90.95
64908;BME280;64365;-1.756;110.040;2022-11-21T11:45:29;100064.63;;;8.27;90.65
64908;BME280;64365;-1.756;110.040;2022-11-21T11:48:14;100057.56;;;8.42;90.20
64908;BME280;64365;-1.756;110.040;2022-11-21T11:50:46;100063.34;;;8.51;90.57
64908;BME280;64365;-1.756;110.040;2022-11-21T11:53:17;100055.06;;;8.60;89.68
64908;BME280;64365;-1.756;110.040;2022-11-21T11:55:48;100038.81;;;8.62;89.88
64908;BME280;64365;-1.756;110.040;2022-11-21T11:58:22;100030.94;;;8.72;89.57
64908;BME280;64365;-1.756;110.040;2022-11-21T12:00:57;100032.41;;;8.66;88.77
64908;BME280;64365;-1.756;110.040;2022-11-21T12:03:31;100014.25;;;8.68;88.72
64908;BME280;64365;-1.756;110.040;2022-11-21T12:06:03;100014.63;;;8.67;88.99
64908;BME280;64365;-1.756;110.040;2022-11-21T12:08:39;100004.81;;;8.71;88.47
64908;BME280;64365;-1.756;110.040;2022-11-21T12:11:32;99998.72;;;8.67;88.41
64908;BME280;64365;-1.756;110.040;2022-11-21T12:14:26;99991.47;;;8.53;89.26
64908;BME280;64365;-1.756;110.040;2022-11-21T12:17:14;99990.75;;;8.59;89.13
64908;BME280;64365;-1.756;110.040;2022-11-21T12:19:43;99990.00;;;8.63;89.63
64908;BME280;64365;-1.756;110.040;2022-11-21T12:22:10;99982.47;;;8.65;89.38
64908;BME280;64365;-1.756;110.040;2022-11-21T12:24:38;99976.78;;;8.66;89.93
64908;BME280;64365;-1.756;110.040;2022-11-21T12:27:18;99964.69;;;8.72;89.38
64908;BME280;64365;-1.756;110.040;2022-11-21T12:29:57;99973.03;;;8.74;89.41
64908;BME280;64365;-1.756;110.040;2022-11-21T12:32:41;99956.81;;;8.80;89.74
64908;BME280;64365;-1.756;110.040;2022-11-21T12:35:31;99965.09;;;8.78;89.78
64908;BME280;64365;-1.756;110.040;2022-11-21T12:38:15;99950.00;;;8.82;89.17
64908;BME280;64365;-1.756;110.040;2022-11-21T12:40:58;99943.94;;;8.82;89.12
64908;BME280;64365;-1.756;110.040;2022-11-21T12:44:00;99940.94;;;8.90;89.35
64908;BME280;64365;-1.756;110.040;2022-11-21T12:46:37;99919.75;;;8.94;89.75
64908;BME280;64365;-1.756;110.040;2022-11-21T12:49:16;99933.81;;;9.09;88.97
64908;BME280;64365;-1.756;110.040;2022-11-21T12:52:12;99923.59;;;9.04;89.06
64908;BME280;64365;-1.756;110.040;2022-11-21T12:55:13;99918.31;;;9.11;88.79